createdAt,value
2023-03-07T00:02:37.610Z,4.47
2023-03-07T00:05:23.321Z,3.60
2023-03-07T00:08:09.568Z,2.83
2023-03-07T00:10:55.924Z,10.60
2023-03-07T00:13:42.068Z,5.10
2023-03-07T00:16:27.975Z,2.97
2023-03-07T00:19:14.154Z,3.75
2023-03-07T00:21:59.949Z,6.32
2023-03-07T00:24:48.628Z,7.28
2023-03-07T00:27:35.299Z,1.77
2023-03-07T00:30:21.184Z,4.97
2023-03-07T00:33:08.008Z,3.40
2023-03-07T00:36:02.658Z,3.42
2023-03-07T00:38:56.187Z,4.07
2023-03-07T00:41:42.225Z,5.18
2023-03-07T00:44:30.153Z,2.95
2023-03-07T00:47:15.946Z,4.05
2023-03-07T00:50:02.322Z,4.07
2023-03-07T00:52:48.128Z,3.90
2023-03-07T00:55:34.024Z,2.65
2023-03-07T00:58:20.684Z,3.28
2023-03-07T01:01:12.833Z,2.83
2023-03-07T01:03:59.619Z,3.15
2023-03-07T01:06:45.408Z,2.03
2023-03-07T01:09:31.362Z,2.38
2023-03-07T01:12:17.602Z,2.63
2023-03-07T01:15:05.425Z,1.33
2023-03-07T01:17:51.886Z,2.95
2023-03-07T01:20:38.998Z,3.13
2023-03-07T01:23:24.963Z,2.10
2023-03-07T01:26:20.330Z,1.65
2023-03-07T01:29:17.697Z,3.33
2023-03-07T01:32:04.080Z,2.75
2023-03-07T01:34:50.221Z,5.35
2023-03-07T01:37:36.979Z,4.38
2023-03-07T01:40:25.166Z,2.72
2023-03-07T01:43:23.249Z,3.42
2023-03-07T01:46:18.637Z,11.98
2023-03-07T01:49:21.403Z,27.42
2023-03-07T01:52:14.260Z,13.73
2023-03-07T01:55:28.607Z,16.38
2023-03-07T01:58:19.740Z,4.43
2023-03-07T02:01:08.958Z,11.60
2023-03-07T02:04:11.024Z,8.15
2023-03-07T02:06:57.012Z,2.90
2023-03-07T02:09:44.556Z,1.45
2023-03-07T02:12:30.541Z,1.65
2023-03-07T02:15:16.767Z,1.35
2023-03-07T02:18:03.665Z,1.35
2023-03-07T02:21:20.909Z,0.95
2023-03-07T02:24:32.735Z,1.38
2023-03-07T02:27:18.968Z,0.68
2023-03-07T02:30:05.709Z,0.95
2023-03-07T02:32:51.527Z,0.80
2023-03-07T02:35:37.345Z,0.93
2023-03-07T02:38:26.696Z,1.67
2023-03-07T02:41:13.256Z,1.02
2023-03-07T02:44:00.300Z,2.20
2023-03-07T02:46:46.854Z,1.23
2023-03-07T02:49:32.890Z,2.65
2023-03-07T02:52:20.299Z,5.18
2023-03-07T02:55:07.711Z,4.45
2023-03-07T02:57:56.721Z,7.43
2023-03-07T03:00:42.731Z,3.25
2023-03-07T03:03:28.590Z,3.13
2023-03-07T03:06:14.503Z,3.72
2023-03-07T03:09:00.730Z,2.97
2023-03-07T03:11:46.791Z,1.85
2023-03-07T03:14:33.653Z,2.97
2023-03-07T03:17:19.313Z,5.53
2023-03-07T03:20:11.784Z,5.00
2023-03-07T03:22:57.790Z,3.45
2023-03-07T03:25:43.641Z,2.70
2023-03-07T03:28:30.030Z,1.98
2023-03-07T03:31:16.362Z,1.27
2023-03-07T03:34:02.334Z,3.15
2023-03-07T03:36:49.291Z,7.30
2023-03-07T03:39:36.009Z,2.45
2023-03-07T03:42:22.984Z,1.92
2023-03-07T03:45:10.399Z,3.10
2023-03-07T03:47:56.391Z,7.20
2023-03-07T03:50:42.206Z,11.60
2023-03-07T03:53:28.197Z,20.70
2023-03-07T03:56:17.294Z,16.40
2023-03-07T03:59:03.676Z,16.25
2023-03-07T04:01:50.919Z,9.52
2023-03-07T04:04:38.278Z,7.93
2023-03-07T04:07:25.262Z,6.90
2023-03-07T04:10:11.627Z,4.28
2023-03-07T04:12:57.933Z,2.45
2023-03-07T04:15:44.029Z,1.88
2023-03-07T04:18:30.238Z,2.03
2023-03-07T04:21:16.064Z,1.45
2023-03-07T04:24:01.858Z,2.40
2023-03-07T04:26:50.132Z,2.33
2023-03-07T04:29:35.881Z,3.65
2023-03-07T04:32:40.207Z,3.92
2023-03-07T04:35:25.952Z,4.35
2023-03-07T04:38:14.459Z,4.93
2023-03-07T04:41:00.097Z,9.20
2023-03-07T04:43:47.078Z,9.50
2023-03-07T04:46:32.833Z,11.55
2023-03-07T04:49:18.754Z,11.88
2023-03-07T04:52:05.597Z,11.93
2023-03-07T04:54:51.870Z,12.38
2023-03-07T04:57:38.055Z,13.65
2023-03-07T05:00:25.069Z,13.27
2023-03-07T05:03:12.536Z,15.57
2023-03-07T05:06:05.415Z,14.57
2023-03-07T05:08:51.783Z,22.48
2023-03-07T05:11:37.684Z,20.98
2023-03-07T05:14:24.073Z,13.35
2023-03-07T05:17:10.839Z,11.90
2023-03-07T05:19:56.814Z,14.13
2023-03-07T05:22:43.261Z,16.65
2023-03-07T05:25:29.329Z,17.05
2023-03-07T05:28:16.988Z,17.02
2023-03-07T05:31:03.096Z,21.08
2023-03-07T05:33:49.949Z,19.13
2023-03-07T05:36:35.745Z,22.58
2023-03-07T05:39:22.996Z,18.05
2023-03-07T05:42:09.646Z,21.63
2023-03-07T05:44:56.612Z,18.75
2023-03-07T05:47:43.077Z,24.98
2023-03-07T05:50:31.780Z,29.33
2023-03-07T05:53:17.850Z,25.05
2023-03-07T05:56:04.999Z,20.95
2023-03-07T05:58:51.817Z,20.52
2023-03-07T06:01:38.390Z,25.67
2023-03-07T06:04:24.390Z,15.65
2023-03-07T06:07:10.343Z,14.93
2023-03-07T06:09:56.097Z,8.35
2023-03-07T06:12:41.914Z,10.43
2023-03-07T06:15:27.969Z,10.43
2023-03-07T06:18:21.759Z,11.32
2023-03-07T06:21:09.068Z,11.50
2023-03-07T06:24:00.174Z,8.77
2023-03-07T06:26:45.916Z,11.85
2023-03-07T06:29:32.940Z,8.23
2023-03-07T06:32:19.166Z,8.48
2023-03-07T06:35:05.479Z,11.82
2023-03-07T06:37:52.102Z,12.60
2023-03-07T06:40:38.181Z,22.15
2023-03-07T06:43:24.050Z,19.02
2023-03-07T06:46:10.640Z,23.88
2023-03-07T06:48:59.846Z,29.42
2023-03-07T06:51:56.535Z,24.58
2023-03-07T06:54:42.245Z,18.17
2023-03-07T06:57:28.118Z,16.08
2023-03-07T07:00:15.240Z,14.43
2023-03-07T07:03:01.433Z,11.68
2023-03-07T07:05:47.221Z,8.65
2023-03-07T07:08:33.620Z,9.98
2023-03-07T07:11:19.318Z,11.05
2023-03-07T07:14:05.865Z,10.68
2023-03-07T07:16:52.351Z,7.93
2023-03-07T07:19:38.776Z,9.40
2023-03-07T07:22:24.888Z,5.93
2023-03-07T07:25:11.290Z,9.75
2023-03-07T07:27:57.024Z,41.92
2023-03-07T07:30:43.321Z,42.28
2023-03-07T07:33:32.032Z,51.80
2023-03-07T07:36:18.070Z,55.67
2023-03-07T07:39:07.801Z,84.85
2023-03-07T07:41:56.412Z,63.25
2023-03-07T07:44:47.047Z,54.78
2023-03-07T07:47:34.114Z,62.67
2023-03-07T07:50:21.409Z,61.58
2023-03-07T07:53:07.264Z,48.05
2023-03-07T07:55:53.569Z,49.40
2023-03-07T07:58:40.703Z,27.05
2023-03-07T08:01:26.817Z,11.95
2023-03-07T08:04:12.656Z,14.52
2023-03-07T08:06:58.582Z,14.70
2023-03-07T08:09:44.379Z,14.45
2023-03-07T08:12:30.202Z,29.55
2023-03-07T08:15:17.175Z,15.75
2023-03-07T08:18:02.895Z,12.10
2023-03-07T08:20:48.783Z,13.18
2023-03-07T08:23:35.908Z,9.60
2023-03-07T08:26:21.812Z,23.92
2023-03-07T08:29:07.870Z,24.73
2023-03-07T08:31:54.485Z,24.15
2023-03-07T08:34:40.228Z,28.83
2023-03-07T08:37:26.131Z,24.15
2023-03-07T08:40:13.373Z,16.83
2023-03-07T08:42:59.691Z,17.88
2023-03-07T08:45:45.477Z,28.45
2023-03-07T08:48:31.430Z,11.55
2023-03-07T08:51:18.224Z,11.38
2023-03-07T08:54:04.940Z,10.23
2023-03-07T08:56:50.821Z,11.38
2023-03-07T08:59:36.621Z,11.93
2023-03-07T09:02:22.475Z,14.07
2023-03-07T09:05:08.625Z,15.15
2023-03-07T09:07:54.705Z,15.38
2023-03-07T09:10:40.510Z,13.50
2023-03-07T09:13:26.667Z,12.88
2023-03-07T09:16:12.536Z,16.98
2023-03-07T09:18:58.200Z,13.15
2023-03-07T09:21:44.102Z,17.30
2023-03-07T09:24:30.432Z,15.85
2023-03-07T09:27:16.201Z,12.63
2023-03-07T09:30:02.320Z,11.15
2023-03-07T09:32:49.257Z,12.00
2023-03-07T09:35:35.383Z,10.05
2023-03-07T09:38:21.163Z,7.57
2023-03-07T09:41:06.879Z,12.07
2023-03-07T09:44:13.012Z,12.13
2023-03-07T09:47:40.378Z,13.00
2023-03-07T09:50:39.510Z,12.85
2023-03-07T09:54:06.111Z,9.75
2023-03-07T09:57:02.764Z,9.57
2023-03-07T09:59:53.801Z,6.03
2023-03-07T10:03:06.340Z,13.27
2023-03-07T10:05:54.555Z,9.55
2023-03-07T10:08:40.884Z,6.97
2023-03-07T10:11:38.388Z,9.55
2023-03-07T10:14:50.048Z,6.45
2023-03-07T10:18:04.538Z,9.23
2023-03-07T10:21:21.686Z,7.28
2023-03-07T10:24:08.097Z,5.50
2023-03-07T10:27:09.791Z,7.93
2023-03-07T10:29:56.807Z,5.20
2023-03-07T10:32:48.436Z,11.77
2023-03-07T10:35:41.963Z,11.52
2023-03-07T10:38:39.926Z,10.52
2023-03-07T10:41:27.185Z,7.93
2023-03-07T10:44:19.124Z,7.13
2023-03-07T10:47:05.449Z,4.47
2023-03-07T10:49:54.971Z,6.82
2023-03-07T10:52:55.852Z,8.23
2023-03-07T10:55:44.372Z,6.28
2023-03-07T10:58:31.052Z,13.05
2023-03-07T11:01:18.841Z,8.55
2023-03-07T11:04:07.323Z,7.97
2023-03-07T11:06:55.700Z,14.50
2023-03-07T11:09:48.170Z,13.82
2023-03-07T11:12:45.359Z,14.85
2023-03-07T11:15:31.333Z,8.45
2023-03-07T11:18:30.273Z,9.95
2023-03-07T11:21:30.434Z,9.85
2023-03-07T11:24:37.785Z,11.65
2023-03-07T11:27:39.685Z,10.50
2023-03-07T11:30:42.673Z,9.68
2023-03-07T11:33:35.388Z,9.88
2023-03-07T11:36:31.070Z,11.85
2023-03-07T11:39:29.056Z,8.05
2023-03-07T11:42:26.428Z,7.45
2023-03-07T11:45:28.009Z,9.27
2023-03-07T11:48:22.777Z,5.32
2023-03-07T11:51:26.680Z,8.57
2023-03-07T11:54:21.587Z,8.07
2023-03-07T11:57:26.545Z,10.85
2023-03-07T12:00:38.966Z,8.73
2023-03-07T12:03:42.785Z,8.40
2023-03-07T12:07:05.191Z,6.95
2023-03-07T12:10:05.970Z,6.57
2023-03-07T12:13:24.778Z,9.43
2023-03-07T12:16:29.449Z,6.43
2023-03-07T12:19:38.414Z,11.10
2023-03-07T12:22:29.784Z,8.95
2023-03-07T12:25:19.690Z,9.35
2023-03-07T12:28:20.732Z,12.25
2023-03-07T12:31:17.733Z,7.65
2023-03-07T12:34:06.734Z,6.72
2023-03-07T12:36:57.279Z,10.23
2023-03-07T12:39:54.357Z,9.70
2023-03-07T12:43:12.922Z,6.65
2023-03-07T12:46:09.431Z,9.20
2023-03-07T12:49:01.262Z,6.10
2023-03-07T12:51:56.121Z,12.77
2023-03-07T12:54:46.231Z,9.27
2023-03-07T12:57:35.238Z,8.68
2023-03-07T13:00:22.994Z,13.88
2023-03-07T13:03:11.723Z,8.00
2023-03-07T13:05:58.136Z,14.68
2023-03-07T13:08:47.825Z,12.40
2023-03-07T13:11:34.612Z,11.73
2023-03-07T13:14:43.156Z,7.70
2023-03-07T13:17:35.123Z,9.60
2023-03-07T13:20:41.738Z,6.50
2023-03-07T13:23:28.565Z,10.32
2023-03-07T13:26:23.299Z,8.60
2023-03-07T13:29:09.202Z,11.43
2023-03-07T13:31:55.086Z,21.27
2023-03-07T13:34:46.675Z,13.60
2023-03-07T13:37:51.384Z,12.52
2023-03-07T13:40:37.163Z,11.77
2023-03-07T13:43:24.119Z,8.30
2023-03-07T13:46:45.794Z,11.70
2023-03-07T13:49:36.989Z,14.18
2023-03-07T13:52:23.147Z,10.82
2023-03-07T13:55:19.743Z,9.07
2023-03-07T13:58:16.616Z,11.55
2023-03-07T14:01:17.819Z,12.18
2023-03-07T14:04:14.047Z,13.93
2023-03-07T14:07:05.572Z,25.25
2023-03-07T14:10:21.473Z,10.43
2023-03-07T14:13:14.106Z,8.35
2023-03-07T14:16:15.332Z,7.07
2023-03-07T14:19:10.252Z,12.10
2023-03-07T14:22:13.070Z,16.17
2023-03-07T14:25:18.231Z,7.38
2023-03-07T14:28:22.652Z,9.88
2023-03-07T14:31:23.372Z,5.93
2023-03-07T14:34:21.383Z,12.98
2023-03-07T14:37:20.677Z,8.77
2023-03-07T14:40:26.891Z,6.45
2023-03-07T14:43:28.715Z,8.00
2023-03-07T14:46:20.937Z,9.67
2023-03-07T14:49:43.198Z,8.63
2023-03-07T14:52:31.790Z,8.80
2023-03-07T14:55:23.164Z,14.30
2023-03-07T14:58:19.786Z,11.60
2023-03-07T15:01:12.421Z,13.57
2023-03-07T15:03:58.270Z,8.98
2023-03-07T15:06:44.445Z,12.18
2023-03-07T15:09:32.373Z,7.18
2023-03-07T15:12:25.847Z,14.38
2023-03-07T15:15:23.028Z,10.98
2023-03-07T15:18:20.553Z,16.60
2023-03-07T15:21:07.801Z,14.52
2023-03-07T15:23:55.657Z,15.60
2023-03-07T15:26:49.312Z,13.70
2023-03-07T15:29:35.329Z,14.25
2023-03-07T15:32:39.113Z,13.30
2023-03-07T15:35:27.187Z,11.15
2023-03-07T15:38:21.578Z,11.68
2023-03-07T15:41:30.402Z,8.95
2023-03-07T15:44:18.357Z,7.85
2023-03-07T15:47:14.483Z,8.60
2023-03-07T15:50:05.050Z,15.77
2023-03-07T15:52:53.777Z,6.88
2023-03-07T15:55:40.332Z,9.38
2023-03-07T15:58:27.724Z,6.88
2023-03-07T16:01:25.413Z,7.80
2023-03-07T16:04:36.359Z,8.20
2023-03-07T16:07:22.204Z,8.07
2023-03-07T16:10:08.262Z,10.30
2023-03-07T16:12:54.816Z,7.78
2023-03-07T16:15:41.755Z,6.50
2023-03-07T16:18:30.022Z,7.68
2023-03-07T16:21:18.171Z,11.75
2023-03-07T16:24:05.162Z,11.80
2023-03-07T16:26:52.385Z,15.13
2023-03-07T16:29:39.655Z,13.40
2023-03-07T16:32:27.120Z,9.38
2023-03-07T16:35:21.944Z,18.73
2023-03-07T16:38:08.403Z,16.50
2023-03-07T16:40:54.512Z,11.35
2023-03-07T16:43:40.437Z,5.43
2023-03-07T16:46:26.701Z,6.03
2023-03-07T16:49:20.090Z,8.02
2023-03-07T16:52:06.860Z,7.22
2023-03-07T16:54:52.529Z,8.27
2023-03-07T16:57:38.733Z,9.18
2023-03-07T17:00:26.163Z,11.75
2023-03-07T17:03:12.142Z,9.65
2023-03-07T17:05:58.086Z,14.10
2023-03-07T17:08:44.804Z,19.83
2023-03-07T17:11:30.828Z,12.82
2023-03-07T17:14:17.440Z,18.38
2023-03-07T17:17:04.492Z,23.73
2023-03-07T17:19:50.797Z,17.02
2023-03-07T17:22:37.324Z,15.27
2023-03-07T17:25:23.772Z,19.10
2023-03-07T17:28:14.314Z,10.88
2023-03-07T17:31:00.288Z,9.70
2023-03-07T17:33:46.502Z,11.93
2023-03-07T17:36:32.620Z,11.45
2023-03-07T17:39:18.765Z,11.32
2023-03-07T17:42:05.175Z,10.63
2023-03-07T17:44:51.341Z,12.50
2023-03-07T17:47:37.550Z,15.50
2023-03-07T17:50:24.100Z,19.20
2023-03-07T17:53:09.884Z,18.25
2023-03-07T17:55:56.116Z,22.52
2023-03-07T17:58:42.741Z,17.75
2023-03-07T18:01:29.797Z,21.63
2023-03-07T18:04:15.736Z,28.25
2023-03-07T18:07:01.545Z,32.08
2023-03-07T18:09:53.639Z,23.02
2023-03-07T18:12:50.020Z,23.98
2023-03-07T18:15:35.773Z,26.00
2023-03-07T18:18:22.047Z,22.88
2023-03-07T18:21:11.969Z,19.40
2023-03-07T18:23:57.873Z,12.98
2023-03-07T18:26:44.068Z,14.15
2023-03-07T18:29:30.806Z,11.68
2023-03-07T18:32:17.195Z,18.25
2023-03-07T18:35:04.335Z,22.50
2023-03-07T18:37:50.154Z,28.27
2023-03-07T18:40:36.107Z,32.47
2023-03-07T18:43:22.004Z,31.88
2023-03-07T18:46:10.668Z,29.45
2023-03-07T18:48:57.741Z,26.30
2023-03-07T18:51:46.076Z,24.70
2023-03-07T18:54:32.404Z,34.70
2023-03-07T18:57:18.430Z,41.70
2023-03-07T19:00:05.658Z,39.47
2023-03-07T19:02:51.914Z,44.25
2023-03-07T19:05:45.704Z,38.28
2023-03-07T19:08:31.709Z,46.08
2023-03-07T19:11:17.742Z,48.22
2023-03-07T19:14:04.025Z,45.95
2023-03-07T19:16:50.175Z,48.67
2023-03-07T19:19:36.655Z,33.97
2023-03-07T19:22:27.472Z,29.02
2023-03-07T19:25:13.957Z,30.33
2023-03-07T19:27:59.926Z,28.27
2023-03-07T19:30:46.075Z,31.63
2023-03-07T19:33:32.401Z,34.10
2023-03-07T19:36:27.406Z,27.70
2023-03-07T19:39:20.665Z,26.38
2023-03-07T19:42:07.042Z,29.15
2023-03-07T19:44:54.689Z,20.52
2023-03-07T19:47:41.259Z,19.05
2023-03-07T19:50:27.697Z,21.42
2023-03-07T19:53:15.019Z,21.60
2023-03-07T19:56:10.901Z,28.15
2023-03-07T19:58:59.198Z,26.08
2023-03-07T20:01:46.733Z,28.02
2023-03-07T20:04:33.060Z,28.90
2023-03-07T20:07:19.091Z,27.08
2023-03-07T20:10:05.760Z,18.33
2023-03-07T20:12:53.100Z,27.98
2023-03-07T20:15:39.578Z,12.45
2023-03-07T20:18:25.708Z,16.80
2023-03-07T20:21:14.030Z,16.60
2023-03-07T20:24:00.424Z,18.30
2023-03-07T20:26:48.196Z,15.82
2023-03-07T20:29:34.971Z,21.13
2023-03-07T20:32:20.956Z,20.60
2023-03-07T20:35:07.570Z,18.23
2023-03-07T20:37:53.793Z,21.67
2023-03-07T20:40:40.100Z,22.42
2023-03-07T20:43:26.429Z,25.88
2023-03-07T20:46:14.282Z,24.45
2023-03-07T20:49:03.307Z,40.58
2023-03-07T20:51:52.201Z,41.85
2023-03-07T20:54:39.073Z,30.88
2023-03-07T20:57:25.785Z,29.55
2023-03-07T21:00:13.918Z,25.63
2023-03-07T21:03:05.976Z,25.33
2023-03-07T21:06:00.159Z,26.90
2023-03-07T21:08:47.726Z,27.20
2023-03-07T21:11:35.222Z,26.13
2023-03-07T21:14:21.236Z,20.85
2023-03-07T21:17:09.535Z,20.60
2023-03-07T21:19:55.905Z,17.67
2023-03-07T21:22:42.735Z,24.27
2023-03-07T21:25:29.940Z,30.38
2023-03-07T21:28:16.463Z,29.02
2023-03-07T21:31:07.461Z,26.55
2023-03-07T21:33:56.040Z,24.05
2023-03-07T21:36:42.752Z,24.25
2023-03-07T21:39:29.706Z,22.98
2023-03-07T21:42:16.547Z,22.65
2023-03-07T21:45:03.101Z,18.70
2023-03-07T21:47:53.378Z,18.88
2023-03-07T21:50:44.093Z,24.10
2023-03-07T21:53:30.689Z,21.63
2023-03-07T21:56:17.985Z,23.85
2023-03-07T21:59:03.984Z,26.30
2023-03-07T22:01:49.876Z,23.35
2023-03-07T22:04:35.796Z,25.08
2023-03-07T22:07:21.876Z,24.73
2023-03-07T22:10:08.903Z,29.75
2023-03-07T22:12:54.772Z,25.63
2023-03-07T22:15:40.549Z,27.13
2023-03-07T22:18:27.082Z,27.63
2023-03-07T22:21:14.449Z,36.67
2023-03-07T22:24:01.311Z,25.55
2023-03-07T22:26:47.522Z,29.20
2023-03-07T22:29:33.387Z,26.75
2023-03-07T22:32:19.252Z,35.35
2023-03-07T22:35:05.400Z,35.65
2023-03-07T22:37:51.638Z,36.47
2023-03-07T22:40:39.351Z,34.47
2023-03-07T22:43:25.493Z,46.55
2023-03-07T22:46:14.522Z,43.63
2023-03-07T22:49:00.567Z,40.95
2023-03-07T22:51:46.450Z,38.80
2023-03-07T22:54:33.479Z,37.85
2023-03-07T22:57:19.475Z,29.00
2023-03-07T23:00:06.375Z,27.92
2023-03-07T23:02:54.279Z,30.98
2023-03-07T23:05:41.677Z,23.83
2023-03-07T23:08:27.911Z,24.73
2023-03-07T23:11:14.563Z,28.90
2023-03-07T23:14:00.367Z,22.48
2023-03-07T23:16:46.352Z,24.10
2023-03-07T23:19:32.092Z,17.20
2023-03-07T23:22:18.052Z,20.55
2023-03-07T23:25:05.149Z,19.50
2023-03-07T23:27:51.166Z,20.40
2023-03-07T23:30:38.543Z,25.65
2023-03-07T23:33:24.932Z,32.92
2023-03-07T23:36:12.828Z,24.13
2023-03-07T23:38:59.292Z,27.02
2023-03-07T23:41:45.118Z,14.20
2023-03-07T23:44:30.837Z,13.48
2023-03-07T23:47:16.861Z,8.45
2023-03-07T23:50:02.982Z,9.57
2023-03-07T23:52:49.254Z,8.88
2023-03-07T23:55:35.144Z,16.50
2023-03-07T23:58:21.034Z,26.25
